TimePST,TemperatureF,Dew PointF,Humidity,Sea Level PressureIn,VisibilityMPH,Wind Direction,Wind SpeedMPH,Gust SpeedMPH,PrecipitationIn,Events,Conditions,WindDirDegrees,DateUTC
12:56 AM,50.0,25.0,38,29.94,10.0,SSW,6.9,-,N/A,,Clear,210,2012-11-25 08:56:00
1:56 AM,48.9,25.0,39,29.94,10.0,SSW,5.8,-,N/A,,Clear,200,2012-11-25 09:56:00
2:56 AM,48.9,25.0,39,29.93,10.0,WSW,6.9,-,N/A,,Clear,240,2012-11-25 10:56:00
3:56 AM,48.0,25.0,41,29.92,10.0,SSW,6.9,-,N/A,,Clear,210,2012-11-25 11:56:00
4:56 AM,46.0,26.1,46,29.93,10.0,SSW,6.9,-,N/A,,Clear,210,2012-11-25 12:56:00
5:56 AM,46.0,25.0,44,29.94,10.0,SSW,8.1,-,N/A,,Clear,200,2012-11-25 13:56:00
6:56 AM,46.0,24.1,42,29.95,10.0,SSW,8.1,-,N/A,,Partly Cloudy,210,2012-11-25 14:56:00
7:56 AM,52.0,26.1,37,29.96,10.0,South,6.9,-,N/A,,Partly Cloudy,190,2012-11-25 15:56:00
8:56 AM,55.9,26.1,32,29.96,10.0,South,3.5,-,N/A,,Partly Cloudy,180,2012-11-25 16:56:00
9:56 AM,60.1,24.1,25,29.95,10.0,South,6.9,-,N/A,,Partly Cloudy,180,2012-11-25 17:56:00
10:56 AM,63.0,21.9,21,29.93,10.0,SSE,4.6,-,N/A,,Partly Cloudy,160,2012-11-25 18:56:00
11:56 AM,64.9,21.0,19,29.90,10.0,South,4.6,-,N/A,,Partly Cloudy,170,2012-11-25 19:56:00
12:56 PM,66.9,21.0,17,29.87,10.0,Variable,3.5,-,N/A,,Partly Cloudy,0,2012-11-25 20:56:00
1:56 PM,69.1,21.9,17,29.85,10.0,South,4.6,-,N/A,,Partly Cloudy,170,2012-11-25 21:56:00
2:56 PM,69.1,23.0,18,29.84,10.0,Calm,Calm,-,N/A,,Partly Cloudy,0,2012-11-25 22:56:00
3:56 PM,68.0,21.9,17,29.83,10.0,South,5.8,-,N/A,,Scattered Clouds,180,2012-11-25 23:56:00
4:56 PM,63.0,26.1,25,29.84,10.0,SSW,4.6,-,N/A,,Scattered Clouds,200,2012-11-26 00:56:00
5:56 PM,61.0,26.1,26,29.86,10.0,South,5.8,-,N/A,,Partly Cloudy,190,2012-11-26 01:56:00
6:56 PM,57.0,26.1,30,29.87,10.0,SSW,8.1,-,N/A,,Clear,210,2012-11-26 02:56:00
7:56 PM,55.9,25.0,30,29.88,10.0,SW,3.5,-,N/A,,Clear,220,2012-11-26 03:56:00
8:56 PM,54.0,26.1,34,29.91,10.0,SSW,4.6,-,N/A,,Clear,200,2012-11-26 04:56:00
9:56 PM,53.1,25.0,34,29.91,10.0,SSW,9.2,-,N/A,,Clear,200,2012-11-26 05:56:00
10:56 PM,51.1,25.0,36,29.91,10.0,SSW,11.5,-,N/A,,Scattered Clouds,200,2012-11-26 06:56:00
11:56 PM,51.1,25.0,36,29.93,10.0,SSW,8.1,-,N/A,,Mostly Cloudy,200,2012-11-26 07:56:00